Time;durP1;ratioP1;P1;durP2;ratioP2;P2;SDS_P1;SDS_P2;PMS_P1;PMS_P2;Temp;Humidity;BMP_temperature;BMP_pressure;BME280_temperature;BME280_humidity;BME280_pressure;Samples;Min_cycle;Max_cycle;Signal;HPM_P1;HPM_P2
2021/07/04 00:01:16;;;;;;;7.55;6.43;;;;;;;;;;4945929;28;20545;-80
2021/07/04 00:03:43;;;;;;;8.27;5.70;;;;;;;;;;4948892;28;20070;-82
2021/07/04 00:06:09;;;;;;;7.35;6.28;;;;;;;;;;4946661;28;20436;-81
2021/07/04 00:08:36;;;;;;;7.88;7.00;;;;;;;;;;4948150;28;20067;-82
2021/07/04 00:11:04;;;;;;;7.25;6.00;;;;;;;;;;4961021;28;20039;-82
2021/07/04 00:13:32;;;;;;;6.63;5.97;;;;;;;;;;4950143;28;20039;-83
2021/07/04 00:15:59;;;;;;;7.13;6.28;;;;;;;;;;4935702;28;20086;-82
2021/07/04 00:18:26;;;;;;;7.35;6.55;;;;;;;;;;4946298;28;20698;-82
2021/07/04 00:20:53;;;;;;;5.97;5.10;;;;;;;;;;4947746;28;20071;-80
2021/07/04 00:23:20;;;;;;;7.38;6.47;;;;;;;;;;4941855;28;20059;-82
2021/07/04 00:25:47;;;;;;;8.15;6.55;;;;;;;;;;4945780;28;20686;-82
2021/07/04 00:28:13;;;;;;;9.10;6.57;;;;;;;;;;4948739;28;20553;-82
2021/07/04 00:30:40;;;;;;;7.88;6.93;;;;;;;;;;4946991;28;20059;-82
2021/07/04 00:33:07;;;;;;;7.32;6.63;;;;;;;;;;4939039;28;20665;-81
2021/07/04 00:35:33;;;;;;;8.93;6.68;;;;;;;;;;4949590;28;20074;-81
2021/07/04 00:38:00;;;;;;;9.10;7.25;;;;;;;;;;4944709;28;20531;-81
2021/07/04 00:40:27;;;;;;;7.95;6.90;;;;;;;;;;4943098;28;20051;-83
2021/07/04 00:42:54;;;;;;;9.60;6.90;;;;;;;;;;4947103;28;20073;-81
2021/07/04 00:45:22;;;;;;;9.02;7.38;;;;;;;;;;4944759;28;20063;-81
2021/07/04 00:47:48;;;;;;;9.07;7.40;;;;;;;;;;4947019;28;20043;-82
2021/07/04 00:50:16;;;;;;;10.02;7.55;;;;;;;;;;4944052;28;20054;-82
2021/07/04 00:52:43;;;;;;;10.77;8.45;;;;;;;;;;4945654;28;20067;-83
2021/07/04 00:55:12;;;;;;;12.48;8.40;;;;;;;;;;4945942;28;20110;-82
2021/07/04 00:57:39;;;;;;;9.52;8.07;;;;;;;;;;4943257;28;20400;-81
2021/07/04 01:00:07;;;;;;;11.45;8.52;;;;;;;;;;4937491;28;20067;-82
2021/07/04 01:02:34;;;;;;;9.75;7.80;;;;;;;;;;4947187;28;20067;-81
2021/07/04 01:05:00;;;;;;;11.25;8.55;;;;;;;;;;4945912;28;20035;-82
2021/07/04 01:07:27;;;;;;;10.00;8.48;;;;;;;;;;4947540;28;20027;-82
2021/07/04 01:09:54;;;;;;;12.32;9.13;;;;;;;;;;4939041;28;20031;-80
2021/07/04 01:12:20;;;;;;;10.93;8.80;;;;;;;;;;4945154;28;20039;-81
2021/07/04 01:14:47;;;;;;;12.57;9.10;;;;;;;;;;4945318;28;20431;-81
2021/07/04 01:17:14;;;;;;;10.73;8.90;;;;;;;;;;4947335;28;20062;-80
2021/07/04 01:19:40;;;;;;;10.65;9.45;;;;;;;;;;4941240;28;20098;-82
2021/07/04 01:22:08;;;;;;;11.98;9.07;;;;;;;;;;4940278;28;20070;-81
2021/07/04 01:24:34;;;;;;;11.35;9.05;;;;;;;;;;4946119;28;20075;-81
2021/07/04 01:27:00;;;;;;;10.43;9.00;;;;;;;;;;4946493;28;20059;-81
2021/07/04 01:29:27;;;;;;;12.55;9.10;;;;;;;;;;4948300;28;20099;-82
2021/07/04 01:31:53;;;;;;;11.05;9.07;;;;;;;;;;4949087;28;20055;-81
2021/07/04 01:34:20;;;;;;;13.57;8.63;;;;;;;;;;4949225;28;20039;-83
2021/07/04 01:36:46;;;;;;;12.85;9.70;;;;;;;;;;4947611;28;20204;-82
2021/07/04 01:39:13;;;;;;;11.90;9.25;;;;;;;;;;4944759;28;20066;-82
2021/07/04 01:41:39;;;;;;;11.68;9.55;;;;;;;;;;4945959;28;20063;-82
2021/07/04 01:44:06;;;;;;;13.80;9.57;;;;;;;;;;4946157;28;20069;-81
2021/07/04 01:46:32;;;;;;;11.07;9.75;;;;;;;;;;4950490;28;20385;-82
2021/07/04 01:48:59;;;;;;;13.30;9.48;;;;;;;;;;4947989;28;20067;-82
2021/07/04 01:51:25;;;;;;;13.02;9.48;;;;;;;;;;4946840;28;20075;-82
2021/07/04 01:53:52;;;;;;;13.68;9.55;;;;;;;;;;4949607;28;20050;-82
2021/07/04 01:56:18;;;;;;;12.23;9.73;;;;;;;;;;4950684;28;21336;-82
2021/07/04 01:58:44;;;;;;;11.55;9.68;;;;;;;;;;4949463;28;20062;-81
2021/07/04 02:01:11;;;;;;;13.10;10.25;;;;;;;;;;4946518;28;20051;-81
2021/07/04 02:03:37;;;;;;;12.32;9.27;;;;;;;;;;4944637;28;20519;-82
2021/07/04 02:06:04;;;;;;;12.43;9.13;;;;;;;;;;4943150;28;20090;-82
2021/07/04 02:08:30;;;;;;;13.38;9.13;;;;;;;;;;4948739;28;20140;-82
2021/07/04 02:10:57;;;;;;;12.00;10.02;;;;;;;;;;4942251;28;20067;-82
2021/07/04 02:13:23;;;;;;;11.07;9.55;;;;;;;;;;4940268;28;20067;-82
2021/07/04 02:15:50;;;;;;;11.82;9.43;;;;;;;;;;4946236;28;20066;-81
2021/07/04 02:18:18;;;;;;;10.98;9.50;;;;;;;;;;4946283;28;20458;-82
2021/07/04 02:20:44;;;;;;;13.35;10.20;;;;;;;;;;4947359;28;20598;-82
2021/07/04 02:23:12;;;;;;;12.68;10.15;;;;;;;;;;4942050;28;20074;-82
2021/07/04 02:25:40;;;;;;;12.75;9.98;;;;;;;;;;4937519;28;20116;-82
2021/07/04 02:28:07;;;;;;;11.75;8.93;;;;;;;;;;4959100;28;20090;-83
2021/07/04 02:30:34;;;;;;;11.98;9.98;;;;;;;;;;4948333;28;20058;-82
2021/07/04 02:33:06;;;;;;;13.73;9.85;;;;;;;;;;4947082;28;20121;-82
2021/07/04 02:35:33;;;;;;;10.85;9.60;;;;;;;;;;4950933;28;20106;-81
2021/07/04 02:37:59;;;;;;;13.93;10.00;;;;;;;;;;4945277;28;20118;-82
2021/07/04 02:40:26;;;;;;;13.68;10.10;;;;;;;;;;4943644;28;20056;-81
2021/07/04 02:42:53;;;;;;;12.75;9.60;;;;;;;;;;4936358;28;20071;-81
2021/07/04 02:45:19;;;;;;;11.90;9.00;;;;;;;;;;4950907;28;20059;-82
2021/07/04 02:47:46;;;;;;;11.50;9.55;;;;;;;;;;4946253;28;20058;-82
2021/07/04 02:50:13;;;;;;;11.43;10.07;;;;;;;;;;4940555;28;20067;-81
2021/07/04 02:52:39;;;;;;;13.77;10.23;;;;;;;;;;4945439;28;20074;-81
2021/07/04 02:55:07;;;;;;;12.45;9.73;;;;;;;;;;4950778;28;20061;-82
2021/07/04 02:57:33;;;;;;;13.73;10.10;;;;;;;;;;4948063;28;20055;-81
2021/07/04 03:00:00;;;;;;;12.68;9.93;;;;;;;;;;4948524;28;20083;-81
2021/07/04 03:02:26;;;;;;;12.55;9.43;;;;;;;;;;4947646;28;20063;-82
2021/07/04 03:04:53;;;;;;;14.07;10.02;;;;;;;;;;4950172;28;20070;-83
2021/07/04 03:07:20;;;;;;;13.35;10.27;;;;;;;;;;4946949;28;20514;-81
2021/07/04 03:09:46;;;;;;;16.67;9.95;;;;;;;;;;4943771;28;20067;-81
2021/07/04 03:12:13;;;;;;;15.73;10.50;;;;;;;;;;4948821;28;20106;-82
2021/07/04 03:14:39;;;;;;;13.40;10.05;;;;;;;;;;4950307;28;20542;-81
2021/07/04 03:17:06;;;;;;;11.35;9.10;;;;;;;;;;4945545;28;20074;-82
2021/07/04 03:19:32;;;;;;;13.73;9.50;;;;;;;;;;4951126;28;20063;-82
2021/07/04 03:21:59;;;;;;;12.52;10.45;;;;;;;;;;4949594;28;20094;-82
2021/07/04 03:24:25;;;;;;;15.60;10.23;;;;;;;;;;4949298;28;20468;-82
2021/07/04 03:26:52;;;;;;;13.45;10.55;;;;;;;;;;4951669;28;20549;-82
2021/07/04 03:29:18;;;;;;;13.05;10.25;;;;;;;;;;4948013;28;20437;-81
2021/07/04 03:31:44;;;;;;;13.70;10.50;;;;;;;;;;4948126;28;20563;-82
2021/07/04 03:34:11;;;;;;;14.27;9.55;;;;;;;;;;4944934;28;20051;-82
2021/07/04 03:36:37;;;;;;;14.45;10.38;;;;;;;;;;4948986;28;20526;-83
2021/07/04 03:39:05;;;;;;;12.88;9.60;;;;;;;;;;4950286;28;20063;-81
2021/07/04 03:41:31;;;;;;;13.27;10.23;;;;;;;;;;4941254;28;20062;-82
2021/07/04 03:43:59;;;;;;;14.10;10.05;;;;;;;;;;4948659;28;20094;-82
2021/07/04 03:46:26;;;;;;;11.77;9.85;;;;;;;;;;4946574;28;20786;-83
2021/07/04 03:48:52;;;;;;;13.15;9.70;;;;;;;;;;4942806;28;20063;-82
2021/07/04 03:51:19;;;;;;;10.85;9.60;;;;;;;;;;4952195;28;20458;-82
2021/07/04 03:53:45;;;;;;;12.00;8.35;;;;;;;;;;4942527;28;20062;-82
2021/07/04 03:56:12;;;;;;;12.52;9.73;;;;;;;;;;4943829;28;20067;-82
2021/07/04 03:58:38;;;;;;;11.93;9.55;;;;;;;;;;4949439;28;20070;-82
2021/07/04 04:01:04;;;;;;;12.43;9.68;;;;;;;;;;4943751;28;20613;-81
2021/07/04 04:03:31;;;;;;;12.27;9.48;;;;;;;;;;4949933;28;20089;-82
2021/07/04 04:05:58;;;;;;;11.82;9.82;;;;;;;;;;4944468;28;20067;-82
2021/07/04 04:08:24;;;;;;;13.70;10.75;;;;;;;;;;4946099;28;20494;-82
2021/07/04 04:10:51;;;;;;;14.45;10.20;;;;;;;;;;4949992;28;20055;-82
2021/07/04 04:13:17;;;;;;;11.63;9.35;;;;;;;;;;4937850;28;20135;-82
2021/07/04 04:15:44;;;;;;;13.45;9.70;;;;;;;;;;4941414;28;20047;-82
2021/07/04 04:18:10;;;;;;;11.75;8.98;;;;;;;;;;4944549;28;20055;-82
2021/07/04 04:20:38;;;;;;;12.98;9.48;;;;;;;;;;4945507;28;20503;-82
2021/07/04 04:23:04;;;;;;;12.32;8.60;;;;;;;;;;4943002;28;20078;-83
2021/07/04 04:25:31;;;;;;;16.38;9.93;;;;;;;;;;4945882;28;20503;-82
2021/07/04 04:27:57;;;;;;;14.18;10.25;;;;;;;;;;4947377;28;20067;-81
2021/07/04 04:30:23;;;;;;;12.50;9.98;;;;;;;;;;4947920;28;20149;-81
2021/07/04 04:32:50;;;;;;;15.05;9.93;;;;;;;;;;4949251;28;20444;-83
2021/07/04 04:35:16;;;;;;;12.43;9.38;;;;;;;;;;4939619;28;20052;-79
2021/07/04 04:37:43;;;;;;;10.35;8.73;;;;;;;;;;4947682;28;20102;-79
2021/07/04 04:40:09;;;;;;;9.95;8.55;;;;;;;;;;4947615;28;20028;-78
2021/07/04 04:42:36;;;;;;;10.93;9.15;;;;;;;;;;4943408;28;20059;-79
2021/07/04 04:45:03;;;;;;;10.35;8.55;;;;;;;;;;4942979;28;20059;-81
2021/07/04 04:47:29;;;;;;;9.73;8.35;;;;;;;;;;4948995;28;20075;-80
2021/07/04 04:49:55;;;;;;;9.40;7.47;;;;;;;;;;4939170;28;20059;-79
2021/07/04 04:52:22;;;;;;;10.90;8.27;;;;;;;;;;4942896;28;20440;-80
2021/07/04 04:54:49;;;;;;;8.63;7.72;;;;;;;;;;4940563;28;20091;-80
2021/07/04 04:57:16;;;;;;;9.68;8.70;;;;;;;;;;4943093;28;20054;-79
2021/07/04 04:59:42;;;;;;;10.27;8.45;;;;;;;;;;4947039;28;20067;-79
2021/07/04 05:02:09;;;;;;;9.65;8.63;;;;;;;;;;4941846;28;20454;-79
2021/07/04 05:04:36;;;;;;;10.30;8.32;;;;;;;;;;4938651;28;20062;-80
2021/07/04 05:07:03;;;;;;;10.02;8.25;;;;;;;;;;4946875;28;20063;-79
2021/07/04 05:09:29;;;;;;;10.13;8.15;;;;;;;;;;4950172;28;20599;-81
2021/07/04 05:11:56;;;;;;;10.80;8.20;;;;;;;;;;4946007;28;20112;-81
2021/07/04 05:14:22;;;;;;;9.98;8.60;;;;;;;;;;4959829;28;20055;-80
2021/07/04 05:16:48;;;;;;;9.85;8.00;;;;;;;;;;4948802;28;20074;-80
2021/07/04 05:19:15;;;;;;;9.32;8.32;;;;;;;;;;4942044;28;20042;-80
2021/07/04 05:21:41;;;;;;;9.90;8.35;;;;;;;;;;4953827;28;20467;-82
2021/07/04 05:24:09;;;;;;;14.10;9.48;;;;;;;;;;4947036;28;20082;-82
2021/07/04 05:26:38;;;;;;;10.52;8.95;;;;;;;;;;4943818;28;20054;-83
2021/07/04 05:29:05;;;;;;;10.75;9.18;;;;;;;;;;4945060;28;20054;-83
2021/07/04 05:31:32;;;;;;;9.73;8.65;;;;;;;;;;4944889;28;20059;-82
2021/07/04 05:33:59;;;;;;;10.45;7.88;;;;;;;;;;4948229;28;20055;-79
2021/07/04 05:36:26;;;;;;;9.82;7.93;;;;;;;;;;4945779;28;20078;-80
2021/07/04 05:38:52;;;;;;;9.80;8.45;;;;;;;;;;4946457;28;20118;-79
2021/07/04 05:41:19;;;;;;;9.77;7.90;;;;;;;;;;4943538;28;20043;-80
2021/07/04 05:43:46;;;;;;;10.18;9.07;;;;;;;;;;4941994;28;20130;-78
2021/07/04 05:46:12;;;;;;;9.82;8.52;;;;;;;;;;4941315;28;20047;-79
2021/07/04 05:48:41;;;;;;;10.25;8.15;;;;;;;;;;4936639;28;21068;-80
2021/07/04 05:51:07;;;;;;;9.57;8.00;;;;;;;;;;4938475;28;20125;-79
2021/07/04 05:53:34;;;;;;;9.60;7.70;;;;;;;;;;4935988;28;20071;-80
2021/07/04 05:56:00;;;;;;;8.50;6.57;;;;;;;;;;4938408;28;20035;-80
2021/07/04 05:58:27;;;;;;;9.85;8.02;;;;;;;;;;4939993;28;20538;-80
2021/07/04 06:00:53;;;;;;;9.48;8.05;;;;;;;;;;4937666;28;20063;-80
2021/07/04 06:03:20;;;;;;;8.50;7.60;;;;;;;;;;4940286;28;20062;-80
2021/07/04 06:05:46;;;;;;;9.25;7.97;;;;;;;;;;4945570;28;20057;-79
2021/07/04 06:08:13;;;;;;;8.98;8.00;;;;;;;;;;4931771;28;20067;-79
2021/07/04 06:10:40;;;;;;;10.15;7.72;;;;;;;;;;4943523;28;20063;-80
2021/07/04 06:13:07;;;;;;;8.52;7.45;;;;;;;;;;4938690;28;20074;-79
2021/07/04 06:15:33;;;;;;;11.23;7.95;;;;;;;;;;4942899;28;20467;-80
2021/07/04 06:17:59;;;;;;;9.18;7.68;;;;;;;;;;4934232;28;20039;-80
2021/07/04 06:20:26;;;;;;;9.10;7.65;;;;;;;;;;4937742;28;20078;-81
2021/07/04 06:22:56;;;;;;;8.65;7.80;;;;;;;;;;4942177;28;20071;-81
2021/07/04 06:25:22;;;;;;;9.40;7.63;;;;;;;;;;4940385;28;21671;-80
2021/07/04 06:27:49;;;;;;;8.60;7.22;;;;;;;;;;4941815;28;20058;-80
2021/07/04 06:30:16;;;;;;;9.32;6.80;;;;;;;;;;4940037;28;20191;-80
2021/07/04 06:32:43;;;;;;;8.77;5.63;;;;;;;;;;4943227;28;20063;-81
2021/07/04 06:35:11;;;;;;;10.68;8.02;;;;;;;;;;4940083;28;20062;-81
2021/07/04 06:37:37;;;;;;;8.95;7.70;;;;;;;;;;4936701;28;20542;-80
2021/07/04 06:40:05;;;;;;;9.35;8.02;;;;;;;;;;4941652;28;20063;-80
2021/07/04 06:42:31;;;;;;;9.80;7.85;;;;;;;;;;4944766;28;20050;-80
2021/07/04 06:44:58;;;;;;;9.32;7.60;;;;;;;;;;4941665;28;20117;-79
2021/07/04 06:47:24;;;;;;;9.60;7.70;;;;;;;;;;4939357;28;20527;-80
2021/07/04 06:49:50;;;;;;;9.48;7.95;;;;;;;;;;4943363;28;20066;-80
2021/07/04 06:52:17;;;;;;;8.32;7.45;;;;;;;;;;4954721;28;20063;-80
2021/07/04 06:54:43;;;;;;;8.68;6.85;;;;;;;;;;4943584;28;20098;-84
2021/07/04 06:57:28;;;;;;;8.65;7.05;;;;;;;;;;4918287;28;20766;-81
2021/07/04 06:59:59;;;;;;;7.97;7.03;;;;;;;;;;4944031;28;20062;-81
2021/07/04 07:02:26;;;;;;;9.40;7.10;;;;;;;;;;4948724;28;20071;-82
2021/07/04 07:04:53;;;;;;;8.27;7.22;;;;;;;;;;4948521;28;20496;-82
2021/07/04 07:07:20;;;;;;;8.52;6.80;;;;;;;;;;4946846;28;20476;-83
2021/07/04 07:09:47;;;;;;;9.93;7.30;;;;;;;;;;4947945;28;20123;-81
2021/07/04 07:12:13;;;;;;;11.77;7.45;;;;;;;;;;4940854;28;22537;-86
2021/07/04 07:14:40;;;;;;;10.30;7.88;;;;;;;;;;4951073;28;20039;-83
2021/07/04 07:17:06;;;;;;;9.70;7.80;;;;;;;;;;4953041;28;20275;-77
2021/07/04 07:19:33;;;;;;;7.03;6.30;;;;;;;;;;4942164;28;20035;-77
2021/07/04 07:22:00;;;;;;;9.55;7.50;;;;;;;;;;4961204;28;20067;-74
2021/07/04 07:24:26;;;;;;;9.80;7.30;;;;;;;;;;4953298;28;20162;-78
2021/07/04 07:26:53;;;;;;;8.45;7.55;;;;;;;;;;4950134;28;20039;-83
2021/07/04 07:29:19;;;;;;;10.95;7.18;;;;;;;;;;4951222;28;20054;-87
2021/07/04 07:31:46;;;;;;;8.50;6.32;;;;;;;;;;4943719;28;20077;-76
2021/07/04 07:34:13;;;;;;;11.68;7.10;;;;;;;;;;4940663;28;20062;-77
2021/07/04 07:36:39;;;;;;;10.18;7.78;;;;;;;;;;4948680;28;20059;-75
2021/07/04 07:39:06;;;;;;;11.55;7.60;;;;;;;;;;4953156;28;20086;-76
2021/07/04 07:41:33;;;;;;;13.30;8.05;;;;;;;;;;4948352;28;20066;-75
2021/07/04 07:43:59;;;;;;;11.35;7.32;;;;;;;;;;4945744;28;20066;-77
2021/07/04 07:46:26;;;;;;;13.75;7.95;;;;;;;;;;4948491;28;20055;-77
2021/07/04 07:48:52;;;;;;;10.77;7.13;;;;;;;;;;4953591;28;20055;-75
2021/07/04 07:51:19;;;;;;;11.32;8.05;;;;;;;;;;4944157;28;21339;-79
2021/07/04 07:53:45;;;;;;;11.20;7.93;;;;;;;;;;4949653;28;20074;-79
2021/07/04 07:56:12;;;;;;;9.27;7.32;;;;;;;;;;4950417;28;20525;-79
2021/07/04 07:58:38;;;;;;;6.28;5.68;;;;;;;;;;4948008;28;20062;-81
2021/07/04 08:01:04;;;;;;;6.63;5.80;;;;;;;;;;4948651;28;20118;-82
2021/07/04 08:03:31;;;;;;;9.52;7.28;;;;;;;;;;4948187;28;20069;-84
2021/07/04 08:05:58;;;;;;;13.23;8.07;;;;;;;;;;4951088;28;20059;-82
2021/07/04 08:08:24;;;;;;;10.70;7.47;;;;;;;;;;4962836;28;20077;-82
2021/07/04 08:10:51;;;;;;;9.75;5.93;;;;;;;;;;4949517;28;20118;-82
2021/07/04 08:13:17;;;;;;;8.48;6.32;;;;;;;;;;4955516;28;20078;-82
2021/07/04 08:15:43;;;;;;;9.63;7.30;;;;;;;;;;4953003;28;20063;-84
2021/07/04 08:18:10;;;;;;;9.05;6.35;;;;;;;;;;4949177;28;20070;-87
2021/07/04 08:20:36;;;;;;;10.65;7.05;;;;;;;;;;4947608;28;20052;-85
2021/07/04 08:23:03;;;;;;;8.90;6.53;;;;;;;;;;4946438;28;20059;-78
2021/07/04 08:25:30;;;;;;;11.85;6.68;;;;;;;;;;4948698;28;20066;-84
2021/07/04 08:27:57;;;;;;;12.75;7.05;;;;;;;;;;4948205;28;20113;-82
2021/07/04 08:30:24;;;;;;;11.35;7.38;;;;;;;;;;4938833;28;20062;-87
2021/07/04 08:32:50;;;;;;;10.20;7.53;;;;;;;;;;4948045;28;20047;-89
2021/07/04 08:35:16;;;;;;;9.98;6.28;;;;;;;;;;4952806;28;20036;-86
2021/07/04 08:37:43;;;;;;;8.18;6.13;;;;;;;;;;4947885;28;20064;-82
2021/07/04 08:40:09;;;;;;;7.80;5.72;;;;;;;;;;4951378;28;20039;-89
2021/07/04 08:42:36;;;;;;;9.45;7.88;;;;;;;;;;4945187;28;20035;-89
2021/07/04 08:45:03;;;;;;;9.35;6.95;;;;;;;;;;4945567;28;20071;-88
2021/07/04 08:47:30;;;;;;;10.15;7.20;;;;;;;;;;4947371;28;20047;-90
2021/07/04 08:49:57;;;;;;;9.57;7.32;;;;;;;;;;4946264;28;20055;-93
2021/07/04 08:52:23;;;;;;;8.88;6.20;;;;;;;;;;4954970;28;20043;-94
2021/07/04 08:54:50;;;;;;;7.20;6.28;;;;;;;;;;4955568;28;20099;-93
2021/07/04 08:57:17;;;;;;;6.90;6.00;;;;;;;;;;4947690;28;20044;-90
2021/07/04 08:59:44;;;;;;;6.45;5.82;;;;;;;;;;4941034;28;20074;-88
2021/07/04 09:02:12;;;;;;;8.82;6.93;;;;;;;;;;4943029;28;20051;-88
2021/07/04 09:04:39;;;;;;;10.23;7.40;;;;;;;;;;4950490;28;20504;-89
2021/07/04 09:07:07;;;;;;;9.43;6.93;;;;;;;;;;4945597;28;20059;-88
2021/07/04 09:09:35;;;;;;;9.05;5.60;;;;;;;;;;4947521;28;20039;-86
2021/07/04 09:12:09;;;;;;;10.32;5.57;;;;;;;;;;4947622;28;20058;-85
2021/07/04 09:14:41;;;;;;;6.63;5.80;;;;;;;;;;4956907;28;20396;-85
2021/07/04 09:17:11;;;;;;;9.13;6.30;;;;;;;;;;4940800;28;20062;-83
2021/07/04 09:19:41;;;;;;;8.40;7.03;;;;;;;;;;4945791;28;20065;-87
2021/07/04 09:22:10;;;;;;;10.52;7.13;;;;;;;;;;4962591;28;20441;-80
2021/07/04 09:24:37;;;;;;;8.05;6.53;;;;;;;;;;4935607;28;20110;-86
2021/07/04 09:27:04;;;;;;;8.68;6.75;;;;;;;;;;4942957;28;20110;-83
2021/07/04 09:29:42;;;;;;;9.43;7.00;;;;;;;;;;4944670;28;20110;-84
2021/07/04 09:32:13;;;;;;;10.18;7.20;;;;;;;;;;4943198;28;20065;-84
2021/07/04 09:34:40;;;;;;;9.88;7.55;;;;;;;;;;4945104;28;20062;-85
2021/07/04 09:37:07;;;;;;;7.55;6.72;;;;;;;;;;4954681;28;20055;-85
2021/07/04 09:39:33;;;;;;;9.55;7.35;;;;;;;;;;4948260;28;20133;-84
2021/07/04 09:42:03;;;;;;;8.80;7.47;;;;;;;;;;4937224;28;20059;-85
2021/07/04 09:44:30;;;;;;;10.70;8.32;;;;;;;;;;4957004;28;20063;-83
2021/07/04 09:47:12;;;;;;;9.43;8.43;;;;;;;;;;4936556;28;20035;-83
2021/07/04 09:49:38;;;;;;;9.82;7.40;;;;;;;;;;4960664;28;20043;-84
2021/07/04 09:52:12;;;;;;;10.43;6.15;;;;;;;;;;4942652;28;20086;-86
2021/07/04 09:54:57;;;;;;;4.88;4.38;;;;;;;;;;4953041;28;20035;-84
2021/07/04 09:57:24;;;;;;;10.07;6.55;;;;;;;;;;4940661;28;20525;-84
2021/07/04 10:00:10;;;;;;;7.40;6.18;;;;;;;;;;4943010;28;20133;-83
2021/07/04 10:02:36;;;;;;;5.85;5.25;;;;;;;;;;4942473;28;20118;-85
2021/07/04 10:05:35;;;;;;;10.43;6.85;;;;;;;;;;4946312;28;20059;-87
2021/07/04 10:08:16;;;;;;;9.13;7.20;;;;;;;;;;4910001;29;20075;-85
2021/07/04 10:10:43;;;;;;;8.15;7.10;;;;;;;;;;4943763;28;20040;-85
2021/07/04 10:13:09;;;;;;;9.15;6.53;;;;;;;;;;4943478;28;20563;-86
2021/07/04 10:15:36;;;;;;;10.45;8.32;;;;;;;;;;4945245;28;20034;-85
2021/07/04 10:18:03;;;;;;;9.35;7.32;;;;;;;;;;4941222;28;20043;-85
2021/07/04 10:20:30;;;;;;;8.38;7.20;;;;;;;;;;4941306;28;20475;-85
2021/07/04 10:22:57;;;;;;;9.00;7.85;;;;;;;;;;4929687;28;20156;-85
2021/07/04 10:25:23;;;;;;;11.32;8.40;;;;;;;;;;4951825;28;20047;-86
2021/07/04 10:27:50;;;;;;;8.30;7.15;;;;;;;;;;4947262;28;20106;-85
2021/07/04 10:30:26;;;;;;;7.07;6.38;;;;;;;;;;4946612;28;20036;-84
2021/07/04 10:33:11;;;;;;;11.43;8.68;;;;;;;;;;4938028;28;20095;-85
2021/07/04 10:35:49;;;;;;;10.02;7.80;;;;;;;;;;4943403;28;21323;-85
2021/07/04 10:38:16;;;;;;;10.27;8.55;;;;;;;;;;4942569;28;20039;-84
2021/07/04 10:40:42;;;;;;;10.38;6.88;;;;;;;;;;4944243;28;20118;-84
2021/07/04 10:43:09;;;;;;;7.68;6.15;;;;;;;;;;4944447;28;20035;-87
2021/07/04 10:45:48;;;;;;;9.95;7.63;;;;;;;;;;4945670;28;20495;-86
2021/07/04 10:48:18;;;;;;;9.48;8.02;;;;;;;;;;4932383;28;20066;-84
2021/07/04 10:51:07;;;;;;;9.73;7.90;;;;;;;;;;4953686;28;20031;-84
2021/07/04 10:53:43;;;;;;;8.73;7.53;;;;;;;;;;4938459;28;21203;-83
2021/07/04 10:56:28;;;;;;;8.75;7.82;;;;;;;;;;4953934;28;20074;-85
2021/07/04 10:59:15;;;;;;;9.00;7.95;;;;;;;;;;4946911;28;20044;-85
2021/07/04 11:01:58;;;;;;;8.25;6.75;;;;;;;;;;4944919;28;20063;-84
2021/07/04 11:04:33;;;;;;;9.45;8.55;;;;;;;;;;4955225;28;20345;-85
2021/07/04 11:07:07;;;;;;;8.82;7.93;;;;;;;;;;4947052;28;20040;-83
2021/07/04 11:10:00;;;;;;;9.07;7.90;;;;;;;;;;4955068;28;20075;-85
2021/07/04 11:12:30;;;;;;;9.00;7.57;;;;;;;;;;4949498;28;20428;-83
2021/07/04 11:15:15;;;;;;;8.35;7.10;;;;;;;;;;4946212;28;20095;-83
2021/07/04 11:20:27;;;;;;;8.68;6.82;;;;;;;;;;4946933;28;21247;-84
2021/07/04 11:22:54;;;;;;;9.73;7.32;;;;;;;;;;4945655;28;20488;-84
2021/07/04 11:25:40;;;;;;;12.82;7.35;;;;;;;;;;4946427;28;21205;-85
2021/07/04 11:28:15;;;;;;;9.63;7.05;;;;;;;;;;4959437;28;20035;-84
2021/07/04 11:30:42;;;;;;;9.02;6.88;;;;;;;;;;4952445;28;20063;-84
2021/07/04 11:33:28;;;;;;;7.40;6.60;;;;;;;;;;4952393;28;20043;-85
2021/07/04 11:35:56;;;;;;;8.65;6.78;;;;;;;;;;4961335;28;20051;-77
2021/07/04 11:38:26;;;;;;;8.15;6.18;;;;;;;;;;4957721;28;20123;-80
2021/07/04 11:40:53;;;;;;;8.07;6.30;;;;;;;;;;4956462;28;20032;-84
2021/07/04 11:43:21;;;;;;;7.97;6.65;;;;;;;;;;4948792;28;20038;-85
2021/07/04 11:45:49;;;;;;;7.30;6.18;;;;;;;;;;4962301;28;20095;-82
2021/07/04 11:48:18;;;;;;;7.70;5.57;;;;;;;;;;4947534;28;20511;-82
2021/07/04 11:50:49;;;;;;;10.35;6.55;;;;;;;;;;4925576;28;20044;-80
2021/07/04 11:53:16;;;;;;;10.20;6.55;;;;;;;;;;4948847;28;20062;-80
2021/07/04 11:55:59;;;;;;;9.10;6.72;;;;;;;;;;4952096;28;20061;-82
2021/07/04 11:58:26;;;;;;;8.70;6.43;;;;;;;;;;4947191;28;21292;-83
2021/07/04 12:00:53;;;;;;;9.93;6.40;;;;;;;;;;4951774;28;20070;-83
2021/07/04 12:03:23;;;;;;;9.52;7.05;;;;;;;;;;4946713;28;21233;-83
2021/07/04 12:06:06;;;;;;;10.02;6.22;;;;;;;;;;4936998;28;20059;-83
2021/07/04 12:08:50;;;;;;;8.13;5.90;;;;;;;;;;4944163;28;20076;-83
2021/07/04 12:11:16;;;;;;;8.10;5.55;;;;;;;;;;4922092;28;20048;-82
2021/07/04 12:13:54;;;;;;;8.68;6.35;;;;;;;;;;4949267;28;20411;-85
2021/07/04 12:16:20;;;;;;;11.85;5.93;;;;;;;;;;4948335;28;20035;-82
2021/07/04 12:18:47;;;;;;;6.57;4.97;;;;;;;;;;4955608;28;20044;-83
2021/07/04 12:21:13;;;;;;;7.90;5.57;;;;;;;;;;4953910;28;20731;-84
2021/07/04 12:23:39;;;;;;;8.25;5.70;;;;;;;;;;4953979;28;20055;-82
2021/07/04 12:26:09;;;;;;;6.93;5.45;;;;;;;;;;4952269;28;20027;-82
2021/07/04 12:28:35;;;;;;;7.90;5.80;;;;;;;;;;4950888;28;20503;-83
2021/07/04 12:31:02;;;;;;;6.80;5.93;;;;;;;;;;4952918;28;20059;-84
2021/07/04 12:33:32;;;;;;;6.80;5.57;;;;;;;;;;4948445;28;20039;-84
2021/07/04 12:36:06;;;;;;;6.18;5.50;;;;;;;;;;4945414;28;20039;-83
2021/07/04 12:38:37;;;;;;;5.60;5.00;;;;;;;;;;4952816;28;20031;-81
2021/07/04 12:41:08;;;;;;;6.18;5.40;;;;;;;;;;4968445;28;20039;-83
2021/07/04 12:43:39;;;;;;;6.28;5.32;;;;;;;;;;4948753;28;20055;-82
2021/07/04 12:46:17;;;;;;;6.53;5.38;;;;;;;;;;4932870;28;20031;-83
2021/07/04 12:48:45;;;;;;;6.10;5.47;;;;;;;;;;4944726;28;20070;-84
2021/07/04 12:51:12;;;;;;;5.80;5.20;;;;;;;;;;4950911;28;20070;-83
2021/07/04 12:53:46;;;;;;;6.20;5.47;;;;;;;;;;4951516;28;20121;-82
2021/07/04 12:56:23;;;;;;;5.97;5.35;;;;;;;;;;4962250;28;20063;-83
2021/07/04 12:59:02;;;;;;;7.18;5.10;;;;;;;;;;4935174;28;20067;-81
2021/07/04 13:01:29;;;;;;;6.28;5.07;;;;;;;;;;4949299;28;20051;-83
2021/07/04 13:04:04;;;;;;;5.53;4.80;;;;;;;;;;4955424;28;20035;-79
2021/07/04 13:06:54;;;;;;;4.97;4.35;;;;;;;;;;4946587;28;20181;-83
2021/07/04 13:09:41;;;;;;;5.30;4.60;;;;;;;;;;4937444;28;20090;-83
2021/07/04 13:12:16;;;;;;;5.82;5.20;;;;;;;;;;4947580;28;20086;-83
2021/07/04 13:14:49;;;;;;;6.82;5.25;;;;;;;;;;4958772;28;20043;-82
2021/07/04 13:17:20;;;;;;;6.07;4.82;;;;;;;;;;4950648;28;20094;-83
2021/07/04 13:19:48;;;;;;;7.38;4.93;;;;;;;;;;4954080;28;20070;-82
2021/07/04 13:22:22;;;;;;;6.63;5.22;;;;;;;;;;4947120;28;20062;-84
2021/07/04 13:24:50;;;;;;;5.30;4.28;;;;;;;;;;4945401;28;20224;-84
2021/07/04 13:27:18;;;;;;;5.72;4.95;;;;;;;;;;4936640;28;20044;-83
2021/07/04 13:29:45;;;;;;;5.65;5.03;;;;;;;;;;4952915;28;20078;-83
2021/07/04 13:32:14;;;;;;;5.22;4.70;;;;;;;;;;4948143;28;20067;-82
2021/07/04 13:34:42;;;;;;;5.13;4.57;;;;;;;;;;4932308;28;20054;-82
2021/07/04 13:37:09;;;;;;;5.25;4.70;;;;;;;;;;4935787;28;20066;-85
2021/07/04 13:39:54;;;;;;;6.35;4.53;;;;;;;;;;4933531;28;20059;-82
2021/07/04 13:42:21;;;;;;;5.40;4.45;;;;;;;;;;4947594;28;20504;-83
2021/07/04 13:44:48;;;;;;;5.68;4.70;;;;;;;;;;4949509;28;20091;-83
2021/07/04 13:47:14;;;;;;;7.68;4.63;;;;;;;;;;4947421;28;20434;-83
2021/07/04 13:49:41;;;;;;;8.38;5.00;;;;;;;;;;4937858;28;20133;-83
2021/07/04 13:52:07;;;;;;;5.35;3.83;;;;;;;;;;4947850;28;20075;-84
2021/07/04 13:54:34;;;;;;;4.63;4.22;;;;;;;;;;4948942;28;20066;-82
2021/07/04 13:57:01;;;;;;;5.25;4.43;;;;;;;;;;4948548;28;20143;-83
2021/07/04 13:59:28;;;;;;;5.47;4.60;;;;;;;;;;4948363;28;20456;-83
2021/07/04 14:01:55;;;;;;;5.80;4.28;;;;;;;;;;4946082;28;20042;-83
2021/07/04 14:04:21;;;;;;;4.35;3.95;;;;;;;;;;4948621;28;20450;-84
2021/07/04 14:06:48;;;;;;;5.25;4.30;;;;;;;;;;4946638;28;20395;-84
2021/07/04 14:09:18;;;;;;;4.97;4.47;;;;;;;;;;4947173;28;20104;-83
2021/07/04 14:11:45;;;;;;;5.22;4.50;;;;;;;;;;4955344;28;20550;-83
2021/07/04 14:14:11;;;;;;;5.93;4.53;;;;;;;;;;4948888;28;20103;-83
2021/07/04 14:16:40;;;;;;;6.03;4.55;;;;;;;;;;4949480;28;20035;-84
2021/07/04 14:19:07;;;;;;;5.88;4.25;;;;;;;;;;4945960;28;20437;-82
2021/07/04 14:21:33;;;;;;;4.25;3.83;;;;;;;;;;4948366;28;20028;-84
2021/07/04 14:24:00;;;;;;;4.38;3.97;;;;;;;;;;4945201;28;20533;-83
2021/07/04 14:26:26;;;;;;;5.20;4.05;;;;;;;;;;4958756;28;20073;-83
2021/07/04 14:28:53;;;;;;;4.57;3.95;;;;;;;;;;4949116;28;20055;-83
2021/07/04 14:31:19;;;;;;;5.10;4.38;;;;;;;;;;4945071;28;20036;-83
2021/07/04 14:33:45;;;;;;;4.97;4.28;;;;;;;;;;4938259;28;20542;-84
2021/07/04 14:36:12;;;;;;;4.82;4.10;;;;;;;;;;4951142;28;20062;-84
2021/07/04 14:38:38;;;;;;;5.25;4.25;;;;;;;;;;4951150;28;20428;-83
2021/07/04 14:41:07;;;;;;;8.30;4.60;;;;;;;;;;4962706;28;20031;-84
2021/07/04 14:43:36;;;;;;;4.63;3.92;;;;;;;;;;4949593;28;20138;-83
2021/07/04 14:46:03;;;;;;;5.15;4.20;;;;;;;;;;4939709;28;20063;-83